Brandon, Mississippi
Current Conditions -  °F | °C
As of 11:54 AM on Sunday 21 Dec 2014 (Local Time) from KJAN Reporting Station
Few Clouds Few Clouds  
Wind Chill: 55°   Ceiling: Unl
Heat Index: 55°   Visibility: 10mi
Dew Point: 45°   Wind: 5mph
Humidity: 69%   Direction: 110°ESE
Pressure: 30.1"   Gusts: NA
Location:  32.27°N, 89.99°W
Report Text: KJAN 211754Z 11004KT 10SM FEW250 13/07 A3010 RMK AO2 SLP191 T01280072 10128 20028 58021
Loading
Personal Weather Stations






























Interactive Weather Map New forecast layout! Learn more

10-Day Weather Forecast

Advertisements
Track Severe Weather on mobile